createdAt,value
2023-07-08T00:00:52.202Z,101014.25
2023-07-08T00:05:56.886Z,100997.78
2023-07-08T00:10:58.726Z,100995.13
2023-07-08T00:16:00.776Z,100996.94
2023-07-08T00:21:02.585Z,100985.59
2023-07-08T00:26:27.862Z,100985.59
2023-07-08T00:31:29.536Z,100983.59
2023-07-08T00:36:32.105Z,100981.94
2023-07-08T00:41:38.553Z,100983.88
2023-07-08T00:47:06.392Z,100987.63
2023-07-08T00:52:29.056Z,100980.31
2023-07-08T00:57:35.854Z,100974.63
2023-07-08T01:02:43.363Z,100975.03
2023-07-08T01:07:50.042Z,100978.63
2023-07-08T01:12:54.905Z,100967.34
2023-07-08T01:17:56.843Z,100963.31
2023-07-08T01:22:58.588Z,100961.78
2023-07-08T01:28:00.645Z,100961.66
2023-07-08T01:33:08.352Z,100966.72
2023-07-08T01:38:13.397Z,100960.59
2023-07-08T01:43:15.116Z,100962.47
2023-07-08T01:48:21.691Z,100969.28
2023-07-08T01:53:30.737Z,100967.81
2023-07-08T01:58:32.331Z,100958.03
2023-07-08T02:03:34.245Z,100957.81
2023-07-08T02:08:35.794Z,100942.00
2023-07-08T02:13:37.755Z,100933.31
2023-07-08T02:18:39.412Z,100928.72
2023-07-08T02:23:41.087Z,100927.84
2023-07-08T02:28:42.838Z,100924.53
2023-07-08T02:33:44.433Z,100930.88
2023-07-08T02:38:47.118Z,100923.34
2023-07-08T02:43:48.700Z,100923.78
2023-07-08T02:48:50.399Z,100921.03
2023-07-08T02:53:52.110Z,100932.00
2023-07-08T02:58:54.417Z,100922.06
2023-07-08T03:03:56.143Z,100912.47
2023-07-08T03:08:57.940Z,100921.78
2023-07-08T03:13:59.706Z,100920.41
2023-07-08T03:19:01.878Z,100924.59
2023-07-08T03:24:04.637Z,100924.72
2023-07-08T03:29:16.334Z,100935.69
2023-07-08T03:34:19.358Z,100945.13
2023-07-08T03:39:23.727Z,100954.63
2023-07-08T03:44:25.528Z,100959.91
2023-07-08T03:49:27.168Z,100949.72
2023-07-08T03:54:30.785Z,100954.75
2023-07-08T03:59:33.771Z,100950.56
2023-07-08T04:04:35.759Z,100958.63
2023-07-08T04:09:38.476Z,100968.66
2023-07-08T04:14:40.149Z,100957.78
2023-07-08T04:19:41.707Z,100956.13
2023-07-08T04:24:43.605Z,100956.34
2023-07-08T04:29:45.324Z,100960.72
2023-07-08T04:34:47.137Z,100963.34
2023-07-08T04:39:49.032Z,100971.34
2023-07-08T04:44:50.848Z,100975.97
2023-07-08T04:49:52.480Z,100968.56
2023-07-08T04:54:54.163Z,100975.59
2023-07-08T04:59:55.742Z,100973.41
2023-07-08T05:05:00.382Z,100983.31
2023-07-08T05:10:01.994Z,100971.53
2023-07-08T05:15:05.692Z,100981.25
2023-07-08T05:20:09.879Z,100981.31
2023-07-08T05:25:13.315Z,100986.34
2023-07-08T05:30:18.154Z,100989.19
2023-07-08T05:35:19.920Z,100988.91
2023-07-08T05:40:21.706Z,100991.38
2023-07-08T05:45:23.312Z,100991.03
2023-07-08T05:50:24.941Z,100997.91
2023-07-08T05:55:26.888Z,100988.97
2023-07-08T06:00:38.468Z,100979.63
2023-07-08T06:05:41.146Z,100979.50
2023-07-08T06:10:45.186Z,100982.88
2023-07-08T06:15:48.024Z,100974.31
2023-07-08T06:20:58.356Z,101000.44
2023-07-08T06:26:00.111Z,100994.38
2023-07-08T06:31:01.990Z,100999.91
2023-07-08T06:36:03.962Z,100982.97
2023-07-08T06:41:05.567Z,101002.59
2023-07-08T06:46:07.163Z,100998.78
2023-07-08T06:51:08.747Z,100994.41
2023-07-08T06:56:10.300Z,101000.25
2023-07-08T07:01:12.010Z,100993.78
2023-07-08T07:06:13.752Z,101015.34
2023-07-08T07:11:15.728Z,101015.88
2023-07-08T07:16:17.393Z,100999.56
2023-07-08T07:21:19.323Z,100998.56
2023-07-08T07:26:22.968Z,101020.72
2023-07-08T07:31:26.045Z,101017.50
2023-07-08T07:36:27.739Z,101029.16
2023-07-08T07:41:29.387Z,101026.47
2023-07-08T07:46:30.989Z,101035.75
2023-07-08T07:51:32.646Z,101037.56
2023-07-08T07:56:34.243Z,101039.00
2023-07-08T08:01:35.805Z,101031.03
2023-07-08T08:06:37.865Z,101028.13
2023-07-08T08:11:39.545Z,101025.81
2023-07-08T08:16:41.164Z,101029.38
2023-07-08T08:21:43.323Z,101025.63
2023-07-08T08:26:45.322Z,101028.00
2023-07-08T08:31:47.280Z,101016.91
2023-07-08T08:36:49.091Z,101029.56
2023-07-08T08:41:51.516Z,101028.06
2023-07-08T08:46:59.194Z,101018.06
2023-07-08T08:52:01.075Z,101027.72
2023-07-08T08:57:24.509Z,101012.84
2023-07-08T09:02:39.891Z,101039.06
2023-07-08T09:07:48.233Z,101021.13
2023-07-08T09:12:54.258Z,101038.91
2023-07-08T09:18:01.059Z,101024.94
2023-07-08T09:23:26.361Z,101012.19
2023-07-08T09:28:43.122Z,101014.94
2023-07-08T09:33:44.722Z,101006.03
2023-07-08T09:38:49.903Z,101013.59
2023-07-08T09:43:51.564Z,101004.84
2023-07-08T09:48:53.171Z,101011.03
2023-07-08T09:53:54.730Z,101006.41
2023-07-08T09:58:56.599Z,100987.31
2023-07-08T10:04:02.289Z,100972.84
2023-07-08T10:09:14.016Z,100995.69
2023-07-08T10:14:39.799Z,100976.91
2023-07-08T10:19:43.776Z,100983.31
2023-07-08T10:25:18.322Z,100975.84
2023-07-08T10:30:26.343Z,100972.91
2023-07-08T10:35:31.407Z,100973.41
2023-07-08T10:40:38.892Z,100972.84
2023-07-08T10:45:47.328Z,100966.53
2023-07-08T10:51:10.661Z,100974.47
2023-07-08T10:56:19.141Z,100973.41
2023-07-08T11:01:31.899Z,100974.88
2023-07-08T11:06:51.850Z,100968.47
2023-07-08T11:12:02.845Z,100967.75
2023-07-08T11:17:10.199Z,100963.16
2023-07-08T11:22:14.990Z,100969.50
2023-07-08T11:27:41.822Z,100955.25
2023-07-08T11:32:46.676Z,100952.91
2023-07-08T11:37:48.829Z,100952.88
2023-07-08T11:43:01.169Z,100953.31
2023-07-08T11:48:07.809Z,100950.28
2023-07-08T11:53:12.609Z,100957.38
2023-07-08T11:58:22.421Z,100945.13
2023-07-08T12:03:35.108Z,100938.88
2023-07-08T12:08:42.965Z,100950.06
2023-07-08T12:13:44.781Z,100917.72
2023-07-08T12:18:48.799Z,100931.78
2023-07-08T12:23:50.371Z,100927.06
2023-07-08T12:28:53.035Z,100931.44
2023-07-08T12:33:55.604Z,100928.81
2023-07-08T12:39:00.614Z,100919.78
2023-07-08T12:44:03.079Z,100921.63
2023-07-08T12:49:04.699Z,100923.69
2023-07-08T12:54:06.293Z,100916.16
2023-07-08T12:59:07.972Z,100917.06
2023-07-08T13:04:12.905Z,100910.19
2023-07-08T13:09:32.694Z,100897.06
2023-07-08T13:14:34.750Z,100902.91
2023-07-08T13:19:36.361Z,100907.63
2023-07-08T13:24:38.202Z,100903.88
2023-07-08T13:29:40.095Z,100894.47
2023-07-08T13:34:41.973Z,100897.34
2023-07-08T13:39:47.352Z,100891.91
2023-07-08T13:44:50.178Z,100894.56
2023-07-08T13:50:05.720Z,100881.28
2023-07-08T13:55:20.062Z,100890.56
2023-07-08T14:00:22.559Z,100888.13
2023-07-08T14:05:24.278Z,100886.59
2023-07-08T14:10:26.078Z,100888.09
2023-07-08T14:15:27.698Z,100880.41
2023-07-08T14:20:30.373Z,100882.63
2023-07-08T14:25:32.119Z,100885.50
2023-07-08T14:30:38.351Z,100881.00
2023-07-08T14:35:42.196Z,100878.69
2023-07-08T14:40:43.885Z,100882.53
2023-07-08T14:45:50.440Z,100881.38
2023-07-08T14:50:52.235Z,100881.91
2023-07-08T14:55:56.728Z,100885.06
2023-07-08T15:01:01.240Z,100883.09
2023-07-08T15:06:03.247Z,100885.47
2023-07-08T15:11:05.912Z,100877.91
2023-07-08T15:16:15.954Z,100884.53
2023-07-08T15:21:17.616Z,100887.91
2023-07-08T15:26:19.378Z,100877.81
2023-07-08T15:31:24.779Z,100881.66
2023-07-08T15:36:26.571Z,100869.97
2023-07-08T15:41:28.416Z,100872.50
2023-07-08T15:46:36.577Z,100865.44
2023-07-08T15:51:38.531Z,100867.34
2023-07-08T15:56:41.420Z,100861.44
2023-07-08T16:01:43.743Z,100853.69
2023-07-08T16:06:45.350Z,100862.72
2023-07-08T16:11:47.237Z,100858.41
2023-07-08T16:16:49.016Z,100860.72
2023-07-08T16:21:50.655Z,100856.94
2023-07-08T16:26:52.278Z,100861.00
2023-07-08T16:31:54.056Z,100854.09
2023-07-08T16:36:55.666Z,100861.38
2023-07-08T16:41:57.483Z,100885.91
2023-07-08T16:46:59.363Z,100904.28
2023-07-08T16:52:01.273Z,100876.28
2023-07-08T16:57:02.976Z,100886.44
2023-07-08T17:02:15.850Z,100905.34
2023-07-08T17:07:17.618Z,100907.97
2023-07-08T17:12:19.210Z,100862.59
2023-07-08T17:17:20.904Z,100912.88
2023-07-08T17:22:22.567Z,100960.50
2023-07-08T17:27:24.547Z,100893.97
2023-07-08T17:32:26.401Z,100893.03
2023-07-08T17:37:28.189Z,100870.19
2023-07-08T17:42:29.751Z,100870.00
2023-07-08T17:47:31.461Z,100874.84
2023-07-08T17:52:33.191Z,100881.53
2023-07-08T17:57:35.828Z,100900.25
2023-07-08T18:02:37.514Z,100904.97
2023-07-08T18:07:39.226Z,100913.47
2023-07-08T18:12:41.659Z,100939.19
2023-07-08T18:17:43.509Z,100922.50
2023-07-08T18:22:48.584Z,100934.47
2023-07-08T18:27:50.797Z,100943.50
2023-07-08T18:32:53.114Z,100945.53
2023-07-08T18:37:55.970Z,100958.97
2023-07-08T18:43:06.998Z,100956.28
2023-07-08T18:48:13.785Z,100969.94
2023-07-08T18:53:17.882Z,100972.50
2023-07-08T18:58:23.443Z,100974.13
2023-07-08T19:03:28.761Z,100987.03
2023-07-08T19:08:30.536Z,100987.91
2023-07-08T19:13:32.145Z,101001.03
2023-07-08T19:18:33.827Z,101000.75
2023-07-08T19:23:35.707Z,101012.78
2023-07-08T19:28:37.379Z,101026.94
2023-07-08T19:33:39.183Z,101018.88
2023-07-08T19:38:40.964Z,101024.31
2023-07-08T19:43:43.064Z,101036.03
2023-07-08T19:48:44.880Z,101041.84
2023-07-08T19:53:46.719Z,101051.97
2023-07-08T19:58:48.826Z,101059.56
2023-07-08T20:03:50.668Z,101072.13
2023-07-08T20:08:52.678Z,101070.47
2023-07-08T20:13:54.716Z,101076.16
2023-07-08T20:18:56.409Z,101080.00
2023-07-08T20:23:58.003Z,101073.06
2023-07-08T20:29:00.109Z,101074.69
2023-07-08T20:34:01.694Z,101068.22
2023-07-08T20:39:04.283Z,101086.19
2023-07-08T20:44:05.881Z,101085.84
2023-07-08T20:49:10.801Z,101087.34
2023-07-08T20:54:15.634Z,101082.38
2023-07-08T20:59:19.289Z,101093.44
2023-07-08T21:04:21.379Z,101100.47
2023-07-08T21:09:22.977Z,101106.84
2023-07-08T21:14:24.658Z,101106.19
2023-07-08T21:19:26.221Z,101105.41
2023-07-08T21:24:30.861Z,101108.13
2023-07-08T21:29:32.826Z,101110.84
2023-07-08T21:34:34.394Z,101107.84
2023-07-08T21:39:36.104Z,101102.69
2023-07-08T21:44:37.776Z,101103.75
2023-07-08T21:49:39.392Z,101109.41
2023-07-08T21:54:40.943Z,101110.81
2023-07-08T21:59:42.511Z,101108.84
2023-07-08T22:04:44.253Z,101106.94
2023-07-08T22:09:45.891Z,101108.63
2023-07-08T22:14:47.484Z,101094.81
2023-07-08T22:19:49.087Z,101104.19
2023-07-08T22:24:50.901Z,101101.50
2023-07-08T22:29:52.531Z,101124.16
2023-07-08T22:34:54.140Z,101117.19
2023-07-08T22:39:55.935Z,101118.59
2023-07-08T22:44:57.675Z,101116.50
2023-07-08T22:49:59.247Z,101122.53
2023-07-08T22:55:04.164Z,101129.50
2023-07-08T23:00:06.780Z,101135.47
2023-07-08T23:05:08.618Z,101133.00
2023-07-08T23:10:14.542Z,101133.88
2023-07-08T23:15:16.174Z,101148.53
2023-07-08T23:20:20.964Z,101150.16
2023-07-08T23:25:22.814Z,101141.91
2023-07-08T23:30:24.516Z,101156.91
2023-07-08T23:35:26.188Z,101157.56
2023-07-08T23:40:27.910Z,101156.25
2023-07-08T23:45:29.605Z,101146.44
2023-07-08T23:50:31.225Z,101150.03
2023-07-08T23:55:32.825Z,101142.44
